Time;durP1;ratioP1;P1;durP2;ratioP2;P2;SDS_P1;SDS_P2;PMS_P1;PMS_P2;Temp;Humidity;BMP_temperature;BMP_pressure;BME280_temperature;BME280_humidity;BME280_pressure;Samples;Min_cycle;Max_cycle;Signal;HPM_P1;HPM_P2
2023/04/11 00:02:09;;;;;;;;;;;;;;;;;;5013080;28;20041;-70
2023/04/11 00:04:37;;;;;;;7.50;2.80;;;;;;;;;;5017443;28;19913;-71
2023/04/11 00:07:04;;;;;;;7.18;2.50;;;;;;;;;;4984176;28;21054;-71
2023/04/11 00:09:30;;;;;;;6.40;2.20;;;;;;;;;;5001476;28;20064;-71
2023/04/11 00:11:56;;;;;;;6.88;1.88;;;;;;;;;;5012280;28;20029;-70
2023/04/11 00:14:23;;;;;;;;;;;;;;;;;;5016648;28;20664;-70
2023/04/11 00:16:56;;;;;;;6.63;2.03;;;;;;;;;;4997727;28;20746;-73
2023/04/11 00:19:24;;;;;;;6.63;1.63;;;;;;;;;;5001456;28;20033;-72
2023/04/11 00:21:50;;;;;;;6.40;1.70;;;;;;;;;;5013877;28;20037;-72
2023/04/11 00:24:17;;;;;;;4.63;1.52;;;;;;;;;;4998062;28;20777;-72
2023/04/11 00:26:43;;;;;;;5.43;1.70;;;;;;;;;;5014327;28;20042;-73
2023/04/11 00:29:10;;;;;;;6.10;1.70;;;;;;;;;;5011746;28;20087;-73
2023/04/11 00:31:36;;;;;;;8.45;1.77;;;;;;;;;;5012729;28;20470;-72
2023/04/11 00:34:02;;;;;;;6.88;1.67;;;;;;;;;;5007620;28;20180;-73
2023/04/11 00:36:28;;;;;;;;;;;;;;;;;;5001494;28;20528;-70
2023/04/11 00:38:54;;;;;;;5.68;1.50;;;;;;;;;;5008665;28;20617;-72
2023/04/11 00:41:20;;;;;;;;;;;;;;;;;;5016183;28;20041;-73
2023/04/11 00:43:48;;;;;;;7.18;1.80;;;;;;;;;;5017110;28;19913;-72
2023/04/11 00:46:15;;;;;;;6.68;1.83;;;;;;;;;;5014624;28;20384;-72
2023/04/11 00:48:42;;;;;;;4.75;1.60;;;;;;;;;;5000325;28;20139;-72
2023/04/11 00:51:08;;;;;;;6.60;1.85;;;;;;;;;;5012683;28;20030;-72
2023/04/11 00:53:34;;;;;;;;;;;;;;;;;;5002974;28;20026;-72
2023/04/11 00:56:00;;;;;;;5.63;1.70;;;;;;;;;;4998729;28;19917;-72
2023/04/11 00:58:27;;;;;;;6.57;2.00;;;;;;;;;;5015723;28;20039;-71
2023/04/11 01:00:53;;;;;;;7.43;1.70;;;;;;;;;;5002394;28;20391;-71
2023/04/11 01:03:21;;;;;;;7.75;2.72;;;;;;;;;;5019380;28;20026;-71
2023/04/11 01:05:48;;;;;;;8.93;2.92;;;;;;;;;;5011979;28;20484;-71
2023/04/11 01:08:15;;;;;;;9.70;3.67;;;;;;;;;;5008452;28;20091;-71
2023/04/11 01:10:41;;;;;;;10.95;3.78;;;;;;;;;;4999217;28;20098;-71
2023/04/11 01:13:08;;;;;;;9.02;3.75;;;;;;;;;;4998283;28;20124;-72
2023/04/11 01:15:34;;;;;;;9.85;3.90;;;;;;;;;;4999302;28;20480;-72
2023/04/11 01:18:01;;;;;;;9.38;3.80;;;;;;;;;;4996609;28;20038;-71
2023/04/11 01:20:28;;;;;;;8.82;3.65;;;;;;;;;;5013217;28;20120;-72
2023/04/11 01:22:56;;;;;;;10.40;3.88;;;;;;;;;;5012509;28;20036;-72
2023/04/11 01:25:25;;;;;;;9.18;3.80;;;;;;;;;;5006047;28;20037;-72
2023/04/11 01:27:51;;;;;;;10.70;4.47;;;;;;;;;;5014154;28;20032;-71
2023/04/11 01:30:17;;;;;;;9.43;4.28;;;;;;;;;;5009295;28;20126;-72
2023/04/11 01:32:43;;;;;;;;;;;;;;;;;;5019035;28;20442;-71
2023/04/11 01:35:11;;;;;;;9.13;3.80;;;;;;;;;;4995350;28;20275;-72
2023/04/11 01:37:38;;;;;;;8.82;3.00;;;;;;;;;;4998154;28;20037;-72
2023/04/11 01:40:04;;;;;;;7.97;3.28;;;;;;;;;;4998399;28;20761;-72
2023/04/11 01:42:32;;;;;;;7.32;2.72;;;;;;;;;;5011498;28;20033;-72
2023/04/11 01:44:59;;;;;;;7.78;3.15;;;;;;;;;;4993381;28;20025;-72
2023/04/11 01:47:25;;;;;;;9.30;3.80;;;;;;;;;;4997693;28;20104;-72
2023/04/11 01:49:52;;;;;;;;;;;;;;;;;;5011533;28;20148;-72
2023/04/11 01:52:19;;;;;;;9.48;3.63;;;;;;;;;;5001331;28;19912;-71
2023/04/11 01:54:45;;;;;;;8.95;3.05;;;;;;;;;;5016905;28;20754;-72
2023/04/11 01:57:11;;;;;;;8.23;3.17;;;;;;;;;;5009983;28;20056;-72
2023/04/11 01:59:37;;;;;;;7.80;3.25;;;;;;;;;;5013250;28;20029;-72
2023/04/11 02:02:03;;;;;;;7.40;3.00;;;;;;;;;;5008570;28;20406;-71
2023/04/11 02:04:29;;;;;;;;;;;;;;;;;;4997496;28;20499;-72
2023/04/11 02:06:56;;;;;;;9.48;3.55;;;;;;;;;;4997282;28;19917;-72
2023/04/11 02:09:22;;;;;;;9.38;3.50;;;;;;;;;;5002543;28;20071;-71
2023/04/11 02:11:48;;;;;;;8.85;3.47;;;;;;;;;;5010758;28;20128;-71
2023/04/11 02:14:15;;;;;;;7.65;2.88;;;;;;;;;;4993680;28;20668;-71
2023/04/11 02:16:53;;;;;;;7.22;2.72;;;;;;;;;;5014270;28;20030;-72
2023/04/11 02:19:20;;;;;;;6.63;2.85;;;;;;;;;;5001741;28;20040;-71
2023/04/11 02:21:46;;;;;;;;;;;;;;;;;;5012174;28;20301;-72
2023/04/11 02:24:12;;;;;;;8.25;2.75;;;;;;;;;;5019212;28;20298;-71
2023/04/11 02:26:38;;;;;;;8.07;2.92;;;;;;;;;;5000898;28;20037;-72
2023/04/11 02:29:04;;;;;;;7.63;2.40;;;;;;;;;;5008719;28;20071;-72
2023/04/11 02:31:30;;;;;;;;;;;;;;;;;;4997430;28;20029;-73
2023/04/11 02:33:56;;;;;;;6.20;2.10;;;;;;;;;;4990979;28;20377;-70
2023/04/11 02:36:22;;;;;;;7.57;2.30;;;;;;;;;;4994060;28;20026;-71
2023/04/11 02:38:48;;;;;;;;;;;;;;;;;;5015982;28;20120;-71
2023/04/11 02:41:15;;;;;;;7.07;1.73;;;;;;;;;;5008057;28;19913;-72
2023/04/11 02:43:41;;;;;;;5.93;2.00;;;;;;;;;;5012641;28;20110;-71
2023/04/11 02:46:07;;;;;;;5.07;1.63;;;;;;;;;;4994329;28;20162;-71
2023/04/11 02:48:33;;;;;;;3.95;1.30;;;;;;;;;;4993796;28;20167;-72
2023/04/11 02:51:00;;;;;;;5.60;1.70;;;;;;;;;;4991180;28;20037;-71
2023/04/11 02:53:26;;;;;;;5.18;1.60;;;;;;;;;;5014122;28;20029;-72
2023/04/11 02:55:52;;;;;;;6.40;1.60;;;;;;;;;;4998455;28;20593;-71
2023/04/11 02:58:19;;;;;;;5.57;1.52;;;;;;;;;;5013959;28;20189;-71
2023/04/11 03:00:45;;;;;;;;;;;;;;;;;;5013162;28;20490;-71
2023/04/11 03:03:11;;;;;;;9.57;1.80;;;;;;;;;;5011480;28;19913;-72
2023/04/11 03:05:38;;;;;;;4.68;1.50;;;;;;;;;;5013081;28;20025;-71
2023/04/11 03:08:07;;;;;;;;;;;;;;;;;;5012336;28;20061;-72
2023/04/11 03:10:33;;;;;;;4.38;1.55;;;;;;;;;;4999792;28;19967;-71
2023/04/11 03:12:59;;;;;;;;;;;;;;;;;;4997234;28;20136;-71
2023/04/11 03:15:26;;;;;;;6.32;1.60;;;;;;;;;;5016011;28;20366;-71
2023/04/11 03:17:53;;;;;;;5.75;1.50;;;;;;;;;;5015415;28;20059;-71
2023/04/11 03:20:19;;;;;;;;;;;;;;;;;;5007716;28;20429;-71
2023/04/11 03:22:45;;;;;;;5.75;1.70;;;;;;;;;;5016174;28;20023;-71
2023/04/11 03:25:11;;;;;;;6.68;1.90;;;;;;;;;;5016602;28;20046;-71
2023/04/11 03:27:37;;;;;;;6.82;2.05;;;;;;;;;;5019357;28;20039;-71
2023/04/11 03:30:04;;;;;;;5.53;1.83;;;;;;;;;;5014113;28;20403;-71
2023/04/11 03:32:30;;;;;;;9.38;2.30;;;;;;;;;;4998156;28;20734;-72
2023/04/11 03:34:57;;;;;;;6.60;1.83;;;;;;;;;;5013472;28;20479;-71
2023/04/11 03:37:23;;;;;;;;;;;;;;;;;;5016950;28;20047;-71
2023/04/11 03:39:49;;;;;;;5.60;1.92;;;;;;;;;;5002326;28;20429;-71
2023/04/11 03:42:15;;;;;;;;;;;;;;;;;;5009405;28;20381;-72
2023/04/11 03:44:41;;;;;;;10.30;2.00;;;;;;;;;;5013128;28;19920;-71
2023/04/11 03:47:07;;;;;;;;;;;;;;;;;;4993811;28;20069;-71
2023/04/11 03:49:33;;;;;;;6.22;1.88;;;;;;;;;;5020308;28;20367;-72
2023/04/11 03:52:00;;;;;;;5.22;1.63;;;;;;;;;;4999290;28;20694;-71
2023/04/11 03:54:26;;;;;;;6.10;1.75;;;;;;;;;;5002182;28;20041;-72
2023/04/11 03:56:52;;;;;;;;;;;;;;;;;;4989082;28;20083;-71
2023/04/11 03:59:18;;;;;;;6.20;2.00;;;;;;;;;;5014530;28;19920;-71
2023/04/11 04:01:44;;;;;;;;;;;;;;;;;;4991767;28;20060;-72
2023/04/11 04:04:10;;;;;;;;;;;;;;;;;;5015197;28;19917;-71
2023/04/11 04:06:36;;;;;;;;;;;;;;;;;;5002491;28;19935;-72
2023/04/11 04:09:03;;;;;;;;;;;;;;;;;;5013113;28;19917;-72
2023/04/11 04:11:29;;;;;;;;;;;;;;;;;;5020955;28;19913;-70
2023/04/11 04:13:55;;;;;;;;;;;;;;;;;;5010208;28;19913;-70
2023/04/11 04:16:21;;;;;;;;;;;;;;;;;;5011752;28;19920;-71
2023/04/11 04:18:47;;;;;;;;;;;;;;;;;;5014876;28;20373;-70
2023/04/11 04:21:13;;;;;;;;;;;;;;;;;;5018788;28;20007;-71
2023/04/11 04:23:46;;;;;;;;;;;;;;;;;;5013585;28;19920;-72
2023/04/11 04:26:14;;;;;;;;;;;;;;;;;;5012109;28;19990;-71
2023/04/11 04:28:44;;;;;;;;;;;;;;;;;;5011922;28;20327;-71
2023/04/11 04:31:10;;;;;;;;;;;;;;;;;;5008182;28;20345;-71
2023/04/11 04:33:36;;;;;;;;;;;;;;;;;;5013896;28;19908;-71
2023/04/11 04:36:03;;;;;;;;;;;;;;;;;;4990576;28;19991;-71
2023/04/11 04:38:29;;;;;;;;;;;;;;;;;;4999311;28;19947;-71
2023/04/11 04:40:55;;;;;;;;;;;;;;;;;;4993965;28;19909;-71
2023/04/11 04:43:21;;;;;;;;;;;;;;;;;;5011818;28;19935;-71
2023/04/11 04:45:47;;;;;;;;;;;;;;;;;;4997354;28;19913;-72
2023/04/11 04:48:13;;;;;;;;;;;;;;;;;;5009999;28;19928;-72
2023/04/11 04:50:39;;;;;;;;;;;;;;;;;;5001751;28;20469;-72
2023/04/11 04:53:06;;;;;;;;;;;;;;;;;;4993322;28;19913;-71
2023/04/11 04:55:32;;;;;;;;;;;;;;;;;;5010361;28;19912;-71
2023/04/11 04:57:58;;;;;;;;;;;;;;;;;;5012092;28;20059;-71
2023/04/11 05:00:24;;;;;;;;;;;;;;;;;;5011364;28;19913;-72
2023/04/11 05:02:53;;;;;;;;;;;;;;;;;;5013786;28;19917;-72
2023/04/11 05:05:19;;;;;;;;;;;;;;;;;;5015307;28;19919;-72
2023/04/11 05:07:45;;;;;;;;;;;;;;;;;;5011261;28;19920;-71
2023/04/11 05:10:11;;;;;;;;;;;;;;;;;;5014751;28;19912;-71
2023/04/11 05:12:37;;;;;;;;;;;;;;;;;;5014315;28;19912;-72
2023/04/11 05:15:03;;;;;;;;;;;;;;;;;;5012150;28;19920;-72
2023/04/11 05:17:29;;;;;;;;;;;;;;;;;;5019675;28;20012;-71
2023/04/11 05:19:55;;;;;;;;;;;;;;;;;;5011751;28;19912;-73
2023/04/11 05:22:21;;;;;;;;;;;;;;;;;;4997472;28;19935;-72
2023/04/11 05:24:47;;;;;;;;;;;;;;;;;;5010366;28;19917;-72
2023/04/11 05:27:13;;;;;;;;;;;;;;;;;;5011121;28;19917;-72
2023/04/11 05:29:39;;;;;;;;;;;;;;;;;;5001618;28;19916;-71
2023/04/11 05:32:05;;;;;;;;;;;;;;;;;;4999367;28;19913;-72
2023/04/11 05:34:33;;;;;;;;;;;;;;;;;;5004679;28;20539;-72
2023/04/11 05:37:00;;;;;;;;;;;;;;;;;;5013976;28;20367;-72
2023/04/11 05:39:26;;;;;;;;;;;;;;;;;;4996515;28;19954;-72
2023/04/11 05:41:52;;;;;;;;;;;;;;;;;;5011708;28;20035;-72
2023/04/11 05:44:18;;;;;;;;;;;;;;;;;;5011151;28;19921;-73
2023/04/11 05:46:44;;;;;;;;;;;;;;;;;;5019201;28;19924;-72
2023/04/11 05:49:10;;;;;;;;;;;;;;;;;;5018572;28;19925;-72
2023/04/11 05:51:36;;;;;;;;;;;;;;;;;;5019927;28;19974;-72
2023/04/11 05:54:02;;;;;;;;;;;;;;;;;;5017909;28;20042;-72
2023/04/11 05:56:28;;;;;;;;;;;;;;;;;;5004389;28;19931;-72
2023/04/11 05:58:54;;;;;;;;;;;;;;;;;;5013940;28;19963;-71
2023/04/11 06:01:21;;;;;;;;;;;;;;;;;;5000226;28;19952;-71
2023/04/11 06:03:47;;;;;;;;;;;;;;;;;;5013724;28;19964;-72
2023/04/11 06:06:13;;;;;;;;;;;;;;;;;;5017399;28;25213;-72
2023/04/11 06:08:39;;;;;;;;;;;;;;;;;;4996747;28;20642;-71
2023/04/11 06:11:05;;;;;;;;;;;;;;;;;;5008736;28;19920;-72
2023/04/11 06:13:30;;;;;;;;;;;;;;;;;;5018278;28;20047;-72
2023/04/11 06:15:56;;;;;;;;;;;;;;;;;;5016119;28;20304;-71
2023/04/11 06:18:22;;;;;;;;;;;;;;;;;;5016643;28;19971;-72
2023/04/11 06:20:49;;;;;;;;;;;;;;;;;;5019394;28;19915;-72
2023/04/11 06:23:15;;;;;;;;;;;;;;;;;;5015500;28;20237;-73
2023/04/11 06:25:41;;;;;;;;;;;;;;;;;;5015419;28;19967;-73
2023/04/11 06:28:07;;;;;;;;;;;;;;;;;;5013205;28;19976;-72
2023/04/11 06:30:33;;;;;;;;;;;;;;;;;;5017930;28;20322;-73
2023/04/11 06:32:59;;;;;;;;;;;;;;;;;;5015153;28;19916;-73
2023/04/11 06:35:25;;;;;;;;;;;;;;;;;;5024890;28;20027;-72
2023/04/11 06:37:51;;;;;;;;;;;;;;;;;;5005840;28;20316;-72
2023/04/11 06:40:18;;;;;;;;;;;;;;;;;;5019018;28;19987;-73
2023/04/11 06:42:44;;;;;;;;;;;;;;;;;;5017758;28;20295;-72
2023/04/11 06:45:10;;;;;;;;;;;;;;;;;;5013919;28;19913;-72
2023/04/11 06:47:36;;;;;;;;;;;;;;;;;;5000729;28;19925;-72
2023/04/11 06:50:02;;;;;;;;;;;;;;;;;;5003177;28;19912;-72
2023/04/11 06:52:29;;;;;;;;;;;;;;;;;;4998138;28;19948;-73
2023/04/11 06:54:55;;;;;;;;;;;;;;;;;;4995573;28;19948;-73
2023/04/11 06:57:21;;;;;;;;;;;;;;;;;;4999757;28;19948;-73
2023/04/11 06:59:47;;;;;;;;;;;;;;;;;;5003255;28;20379;-73
2023/04/11 07:02:13;;;;;;;;;;;;;;;;;;5005436;28;22909;-73
2023/04/11 07:04:39;;;;;;;;;;;;;;;;;;5008179;28;20621;-72
2023/04/11 07:07:05;;;;;;;;;;;;;;;;;;5001437;28;19920;-73
2023/04/11 07:09:31;;;;;;;;;;;;;;;;;;5002503;28;19917;-73
2023/04/11 07:11:57;;;;;;;;;;;;;;;;;;5001223;28;19913;-72
2023/04/11 07:14:23;;;;;;;;;;;;;;;;;;5001718;28;19948;-72
2023/04/11 07:16:49;;;;;;;;;;;;;;;;;;5002667;28;19967;-72
2023/04/11 07:19:15;;;;;;;;;;;;;;;;;;5001899;28;19921;-72
2023/04/11 07:21:41;;;;;;;;;;;;;;;;;;5002781;28;19916;-72
2023/04/11 07:24:09;;;;;;;;;;;;;;;;;;5005225;28;20785;-71
2023/04/11 07:26:37;;;;;;;;;;;;;;;;;;5006022;28;19917;-72
2023/04/11 07:29:03;;;;;;;;;;;;;;;;;;5007103;28;19917;-72
2023/04/11 07:31:29;;;;;;;;;;;;;;;;;;5008204;28;19920;-72
2023/04/11 07:33:55;;;;;;;;;;;;;;;;;;5004451;28;20558;-71
2023/04/11 07:36:21;;;;;;;;;;;;;;;;;;5008594;28;20333;-71
2023/04/11 07:38:47;;;;;;;;;;;;;;;;;;5006217;28;19917;-72
2023/04/11 07:41:15;;;;;;;;;;;;;;;;;;5000163;28;19917;-73
2023/04/11 07:43:41;;;;;;;;;;;;;;;;;;5002196;28;20032;-72
2023/04/11 07:46:06;;;;;;;;;;;;;;;;;;5003392;28;19918;-73
2023/04/11 07:48:32;;;;;;;;;;;;;;;;;;5007606;28;20383;-71
2023/04/11 07:50:59;;;;;;;;;;;;;;;;;;4998975;28;20349;-73
2023/04/11 07:53:25;;;;;;;;;;;;;;;;;;5003240;28;20365;-72
2023/04/11 07:55:51;;;;;;;;;;;;;;;;;;5003085;28;19920;-72
2023/04/11 07:58:17;;;;;;;;;;;;;;;;;;5001824;28;20189;-71
2023/04/11 08:00:43;;;;;;;;;;;;;;;;;;5001236;28;19913;-73
2023/04/11 08:03:09;;;;;;;;;;;;;;;;;;4999406;28;19916;-71
2023/04/11 08:05:35;;;;;;;;;;;;;;;;;;5003097;28;20445;-73
2023/04/11 08:08:01;;;;;;;;;;;;;;;;;;4992232;28;20481;-72
2023/04/11 08:10:27;;;;;;;;;;;;;;;;;;4998910;28;20156;-72
2023/04/11 08:12:53;;;;;;;;;;;;;;;;;;4995112;28;20007;-71
2023/04/11 08:15:19;;;;;;;;;;;;;;;;;;5001739;28;20283;-73
2023/04/11 08:17:45;;;;;;;;;;;;;;;;;;4996354;28;19924;-72
2023/04/11 08:20:11;;;;;;;;;;;;;;;;;;4997978;28;19977;-73
2023/04/11 08:22:38;;;;;;;;;;;;;;;;;;5002611;28;19913;-73
2023/04/11 08:25:04;;;;;;;;;;;;;;;;;;5006831;28;20004;-73
2023/04/11 08:27:30;;;;;;;;;;;;;;;;;;4999386;28;19920;-73
2023/04/11 08:29:56;;;;;;;;;;;;;;;;;;4999173;28;19917;-73
2023/04/11 08:32:22;;;;;;;;;;;;;;;;;;5008639;28;20196;-73
2023/04/11 08:34:48;;;;;;;;;;;;;;;;;;5000973;28;20363;-73
2023/04/11 08:37:14;;;;;;;;;;;;;;;;;;5000001;28;19995;-73
2023/04/11 08:39:40;;;;;;;;;;;;;;;;;;5004983;28;21048;-73
2023/04/11 08:42:06;;;;;;;;;;;;;;;;;;5001344;28;20015;-72
2023/04/11 08:44:32;;;;;;;;;;;;;;;;;;5002395;28;20275;-73
2023/04/11 08:46:58;;;;;;;;;;;;;;;;;;4996137;28;20374;-72
2023/04/11 08:49:24;;;;;;;;;;;;;;;;;;4996418;28;19921;-73
2023/04/11 08:51:50;;;;;;;;;;;;;;;;;;4993600;28;19939;-73
2023/04/11 08:54:16;;;;;;;;;;;;;;;;;;4994970;28;19913;-73
2023/04/11 08:56:42;;;;;;;;;;;;;;;;;;5005190;28;19975;-73
2023/04/11 08:59:08;;;;;;;;;;;;;;;;;;5002348;28;19916;-73
2023/04/11 09:01:36;;;;;;;;;;;;;;;;;;5000564;28;19917;-73
2023/04/11 09:04:03;;;;;;;;;;;;;;;;;;4991056;28;19940;-73
2023/04/11 09:06:29;;;;;;;;;;;;;;;;;;4996950;28;19959;-73
2023/04/11 09:08:55;;;;;;;;;;;;;;;;;;4991495;28;20012;-73
2023/04/11 09:11:21;;;;;;;;;;;;;;;;;;5003421;28;19913;-73
2023/04/11 09:13:47;;;;;;;;;;;;;;;;;;5004327;28;20030;-73
2023/04/11 09:16:13;;;;;;;;;;;;;;;;;;4997285;28;20044;-73
2023/04/11 09:18:40;;;;;;;;;;;;;;;;;;4996110;28;20781;-73
2023/04/11 09:21:05;;;;;;;;;;;;;;;;;;4997338;28;19917;-77
2023/04/11 09:23:31;;;;;;;;;;;;;;;;;;5005325;28;19917;-77
2023/04/11 09:25:57;;;;;;;;;;;;;;;;;;4998966;28;20263;-77
2023/04/11 09:28:24;;;;;;;;;;;;;;;;;;5002120;28;20599;-78
2023/04/11 09:30:50;;;;;;;;;;;;;;;;;;4999040;28;20015;-77
2023/04/11 09:33:16;;;;;;;;;;;;;;;;;;4997654;28;19916;-78
2023/04/11 09:35:42;;;;;;;;;;;;;;;;;;5001960;28;19991;-76
2023/04/11 09:38:08;;;;;;;;;;;;;;;;;;4998685;28;19916;-77
2023/04/11 09:40:34;;;;;;;;;;;;;;;;;;4998637;28;19920;-75
2023/04/11 09:43:01;;;;;;;;;;;;;;;;;;4998841;28;20354;-76
2023/04/11 09:45:27;;;;;;;;;;;;;;;;;;5000449;28;20374;-76
2023/04/11 09:47:53;;;;;;;;;;;;;;;;;;5010750;28;19929;-77
2023/04/11 09:50:19;;;;;;;;;;;;;;;;;;5015863;28;19913;-76
2023/04/11 09:52:45;;;;;;;;;;;;;;;;;;5021853;28;20543;-77
2023/04/11 09:55:11;;;;;;;;;;;;;;;;;;5015053;28;19917;-76
2023/04/11 09:57:37;;;;;;;;;;;;;;;;;;5023206;28;19916;-77
2023/04/11 10:00:13;;;;;;;;;;;;;;;;;;5016083;28;19912;-76
2023/04/11 10:02:39;;;;;;;;;;;;;;;;;;5027235;28;19916;-76
2023/04/11 10:05:06;;;;;;;;;;;;;;;;;;5006113;28;19919;-76
2023/04/11 10:07:33;;;;;;;;;;;;;;;;;;5025861;28;19992;-76
2023/04/11 10:09:58;;;;;;;;;;;;;;;;;;5014744;28;19959;-76
2023/04/11 10:12:25;;;;;;;;;;;;;;;;;;5021547;28;20341;-76
2023/04/11 10:14:51;;;;;;;;;;;;;;;;;;5028013;28;19927;-76
2023/04/11 10:17:17;;;;;;;;;;;;;;;;;;5020092;28;19964;-75
2023/04/11 10:19:43;;;;;;;;;;;;;;;;;;5019921;28;19913;-75
2023/04/11 10:22:08;;;;;;;;;;;;;;;;;;5021944;28;19971;-76
2023/04/11 10:24:34;;;;;;;;;;;;;;;;;;5020701;28;19913;-76
2023/04/11 10:27:02;;;;;;;;;;;;;;;;;;5020520;28;19912;-76
2023/04/11 10:30:01;;;;;;;;;;;;;;;;;;5022603;28;19917;-76
2023/04/11 10:32:20;;;;;;;;;;;;;;;;;;5020501;28;19914;-76
2023/04/11 10:34:46;;;;;;;;;;;;;;;;;;5020169;28;19920;-76
2023/04/11 10:37:12;;;;;;;;;;;;;;;;;;5028449;28;19966;-76
2023/04/11 10:39:38;;;;;;;;;;;;;;;;;;5020563;28;19917;-76
2023/04/11 10:42:04;;;;;;;;;;;;;;;;;;5007628;28;19913;-76
2023/04/11 10:44:30;;;;;;;;;;;;;;;;;;5009541;28;19913;-76
2023/04/11 10:46:56;;;;;;;;;;;;;;;;;;5022257;28;20338;-76
2023/04/11 10:49:22;;;;;;;;;;;;;;;;;;5020513;28;19921;-75
2023/04/11 10:51:48;;;;;;;;;;;;;;;;;;5021217;28;19993;-75
2023/04/11 10:54:14;;;;;;;;;;;;;;;;;;5019907;28;19924;-76
2023/04/11 10:56:40;;;;;;;;;;;;;;;;;;5011034;28;20112;-75
2023/04/11 10:59:08;;;;;;;;;;;;;;;;;;5025175;28;20382;-76
2023/04/11 11:01:35;;;;;;;;;;;;;;;;;;5022526;28;20244;-75
2023/04/11 11:04:01;;;;;;;;;;;;;;;;;;5001037;28;20423;-75
2023/04/11 11:06:28;;;;;;;;;;;;;;;;;;5005088;28;20365;-75
2023/04/11 11:08:54;;;;;;;;;;;;;;;;;;5018905;28;19916;-75
2023/04/11 11:11:20;;;;;;;;;;;;;;;;;;5022795;28;20237;-75
2023/04/11 11:13:46;;;;;;;;;;;;;;;;;;5023504;28;19946;-75
2023/04/11 11:16:12;;;;;;;;;;;;;;;;;;5015224;28;19912;-75
2023/04/11 11:18:38;;;;;;;;;;;;;;;;;;5018874;28;20360;-76
2023/04/11 11:21:04;;;;;;;;;;;;;;;;;;5000930;28;19974;-76
2023/04/11 11:23:30;;;;;;;;;;;;;;;;;;5019863;28;20008;-75
2023/04/11 11:25:56;;;;;;;;;;;;;;;;;;5020035;28;19944;-76
2023/04/11 11:28:22;;;;;;;;;;;;;;;;;;5001125;28;20452;-76
2023/04/11 11:30:48;;;;;;;;;;;;;;;;;;5021217;28;20011;-76
2023/04/11 11:33:14;;;;;;;;;;;;;;;;;;5013344;28;20023;-77
2023/04/11 11:35:40;;;;;;;;;;;;;;;;;;5023894;28;19951;-77
2023/04/11 11:38:07;;;;;;;;;;;;;;;;;;5017858;28;20007;-77
2023/04/11 11:40:33;;;;;;;;;;;;;;;;;;5021331;28;20382;-77
2023/04/11 11:42:59;;;;;;;;;;;;;;;;;;4998910;28;19916;-75
2023/04/11 11:45:25;;;;;;;;;;;;;;;;;;5017794;28;20329;-76
2023/04/11 11:47:51;;;;;;;;;;;;;;;;;;5017431;28;19943;-76
2023/04/11 11:50:17;;;;;;;;;;;;;;;;;;5017538;28;20236;-76
2023/04/11 11:52:43;;;;;;;;;;;;;;;;;;5015858;28;19920;-76
2023/04/11 11:55:09;;;;;;;;;;;;;;;;;;5001931;28;20471;-76
2023/04/11 11:57:35;;;;;;;;;;;;;;;;;;5019760;28;20003;-76
2023/04/11 12:00:04;;;;;;;;;;;;;;;;;;5016515;28;20367;-77
2023/04/11 12:02:30;;;;;;;;;;;;;;;;;;5016403;28;19917;-77
2023/04/11 12:04:56;;;;;;;;;;;;;;;;;;5010996;28;19920;-76
2023/04/11 12:07:22;;;;;;;;;;;;;;;;;;5018547;28;19920;-77
2023/04/11 12:09:48;;;;;;;;;;;;;;;;;;5010730;28;19930;-76
2023/04/11 12:12:15;;;;;;;;;;;;;;;;;;5002098;28;19913;-77
2023/04/11 12:14:41;;;;;;;;;;;;;;;;;;5022975;28;19924;-76
2023/04/11 12:17:07;;;;;;;;;;;;;;;;;;5014942;28;19921;-77
2023/04/11 12:19:33;;;;;;;;;;;;;;;;;;5021478;28;19916;-77
2023/04/11 12:22:00;;;;;;;;;;;;;;;;;;5002654;28;19939;-75
2023/04/11 12:24:26;;;;;;;;;;;;;;;;;;5018813;28;20442;-78
2023/04/11 12:26:52;;;;;;;;;;;;;;;;;;5020709;28;20280;-75
2023/04/11 12:29:18;;;;;;;;;;;;;;;;;;5021068;28;19959;-76
2023/04/11 12:31:45;;;;;;;;;;;;;;;;;;5020236;28;20385;-76
2023/04/11 12:34:11;;;;;;;;;;;;;;;;;;5000120;28;19986;-75
2023/04/11 12:36:37;;;;;;;;;;;;;;;;;;5019365;28;19913;-77
2023/04/11 12:39:03;;;;;;;;;;;;;;;;;;4998680;28;19917;-76
2023/04/11 12:41:28;;;;;;;;;;;;;;;;;;5016636;28;19912;-76
2023/04/11 12:43:55;;;;;;;;;;;;;;;;;;5002593;28;19913;-76
2023/04/11 12:46:20;;;;;;;;;;;;;;;;;;5006229;28;19987;-76
2023/04/11 12:48:46;;;;;;;;;;;;;;;;;;5019156;28;20544;-76
2023/04/11 12:51:12;;;;;;;;;;;;;;;;;;4999137;28;20836;-76
2023/04/11 12:53:38;;;;;;;;;;;;;;;;;;5005512;28;20053;-75
2023/04/11 12:56:04;;;;;;;;;;;;;;;;;;5015696;28;20244;-77
2023/04/11 12:58:31;;;;;;;;;;;;;;;;;;5024986;28;19916;-77
2023/04/11 13:00:58;;;;;;;;;;;;;;;;;;5017984;28;19920;-77
2023/04/11 13:03:24;;;;;;;;;;;;;;;;;;5016157;28;19920;-77
2023/04/11 13:05:50;;;;;;;;;;;;;;;;;;5005561;28;19920;-77
2023/04/11 13:08:16;;;;;;;;;;;;;;;;;;5014923;28;19917;-78
2023/04/11 13:10:42;;;;;;;;;;;;;;;;;;5006786;28;20349;-78
2023/04/11 13:13:08;;;;;;;;;;;;;;;;;;5017697;28;20614;-78
2023/04/11 13:15:34;;;;;;;;;;;;;;;;;;5021383;28;20472;-77
2023/04/11 13:17:59;;;;;;;;;;;;;;;;;;5019757;28;19920;-78
2023/04/11 13:20:25;;;;;;;;;;;;;;;;;;5018954;28;19909;-77
2023/04/11 13:22:51;;;;;;;;;;;;;;;;;;5020819;28;19927;-78
2023/04/11 13:25:17;;;;;;;;;;;;;;;;;;5016647;28;20368;-78
2023/04/11 13:27:43;;;;;;;;;;;;;;;;;;5024143;28;19920;-78
2023/04/11 13:30:10;;;;;;;;;;;;;;;;;;5015855;28;19920;-77
2023/04/11 13:32:36;;;;;;;;;;;;;;;;;;5020605;28;19916;-78
2023/04/11 13:35:02;;;;;;;;;;;;;;;;;;5012944;28;20055;-77
2023/04/11 13:37:28;;;;;;;;;;;;;;;;;;5020936;28;20426;-77
2023/04/11 13:39:54;;;;;;;;;;;;;;;;;;5014868;28;19920;-78
2023/04/11 13:42:21;;;;;;;;;;;;;;;;;;5016417;28;19913;-77
2023/04/11 13:44:47;;;;;;;;;;;;;;;;;;5018822;28;20336;-77
2023/04/11 13:47:13;;;;;;;;;;;;;;;;;;5024341;28;21734;-77
2023/04/11 13:49:40;;;;;;;;;;;;;;;;;;5021805;28;20660;-77
2023/04/11 13:52:06;;;;;;;;;;;;;;;;;;5006292;28;20356;-77
2023/04/11 13:54:32;;;;;;;;;;;;;;;;;;5021369;28;19909;-75
2023/04/11 13:56:58;;;;;;;;;;;;;;;;;;5008764;28;19939;-76
2023/04/11 13:59:24;;;;;;;;;;;;;;;;;;5020350;28;20188;-78
2023/04/11 14:01:50;;;;;;;;;;;;;;;;;;5009055;28;20389;-76
2023/04/11 14:04:16;;;;;;;;;;;;;;;;;;5017576;28;19909;-76
2023/04/11 14:06:42;;;;;;;;;;;;;;;;;;5021690;28;20134;-77
2023/04/11 14:09:08;;;;;;;;;;;;;;;;;;5000364;28;20291;-76
2023/04/11 14:11:34;;;;;;;;;;;;;;;;;;5019717;28;20237;-76
2023/04/11 14:14:00;;;;;;;;;;;;;;;;;;5020146;28;20155;-77
2023/04/11 14:16:26;;;;;;;;;;;;;;;;;;5025064;28;19912;-76
2023/04/11 14:18:52;;;;;;;;;;;;;;;;;;5019354;28;20150;-76
2023/04/11 14:21:18;;;;;;;;;;;;;;;;;;5020524;28;20572;-76
2023/04/11 14:23:44;;;;;;;;;;;;;;;;;;5021100;28;19913;-76
2023/04/11 14:26:10;;;;;;;;;;;;;;;;;;5000016;28;20354;-76
2023/04/11 14:28:36;;;;;;;;;;;;;;;;;;5006971;28;20428;-76
2023/04/11 14:31:02;;;;;;;;;;;;;;;;;;5003221;28;20191;-77
2023/04/11 14:33:28;;;;;;;;;;;;;;;;;;5025151;28;19987;-76
2023/04/11 14:35:54;;;;;;;;;;;;;;;;;;5021549;28;19912;-76
2023/04/11 14:38:20;;;;;;;;;;;;;;;;;;4998309;28;20014;-77
2023/04/11 14:40:46;;;;;;;;;;;;;;;;;;5023555;28;20384;-77
2023/04/11 14:43:12;;;;;;;;;;;;;;;;;;5017545;28;19940;-76
2023/04/11 14:45:38;;;;;;;;;;;;;;;;;;5007649;28;19919;-77
2023/04/11 14:48:04;;;;;;;;;;;;;;;;;;5002929;28;19916;-77
2023/04/11 14:50:30;;;;;;;;;;;;;;;;;;5020586;28;19927;-77
2023/04/11 14:52:56;;;;;;;;;;;;;;;;;;5002397;28;19959;-77
2023/04/11 14:55:22;;;;;;;;;;;;;;;;;;5021962;28;19913;-77
2023/04/11 14:57:48;;;;;;;;;;;;;;;;;;5010806;28;19916;-77
2023/04/11 15:00:18;;;;;;;;;;;;;;;;;;5002930;28;20214;-77
2023/04/11 15:02:44;;;;;;;;;;;;;;;;;;5008743;28;20418;-77
2023/04/11 15:05:10;;;;;;;;;;;;;;;;;;5017282;28;20278;-77
2023/04/11 15:07:36;;;;;;;;;;;;;;;;;;5019857;28;19955;-76
2023/04/11 15:10:02;;;;;;;;;;;;;;;;;;5017782;28;20720;-76
2023/04/11 15:12:28;;;;;;;;;;;;;;;;;;5022548;28;19967;-77
2023/04/11 15:14:54;;;;;;;;;;;;;;;;;;5023315;28;20626;-77
2023/04/11 15:17:20;;;;;;;;;;;;;;;;;;5023982;28;19913;-77
2023/04/11 15:19:46;;;;;;;;;;;;;;;;;;5007299;28;19923;-77
2023/04/11 15:22:12;;;;;;;;;;;;;;;;;;5017081;28;20446;-76
2023/04/11 15:24:38;;;;;;;;;;;;;;;;;;5025153;28;19982;-76
2023/04/11 15:27:04;;;;;;;;;;;;;;;;;;5021250;28;19919;-76
2023/04/11 15:29:30;;;;;;;;;;;;;;;;;;5024268;28;19924;-76
2023/04/11 15:31:55;;;;;;;;;;;;;;;;;;5021780;28;19948;-77
2023/04/11 15:34:22;;;;;;;;;;;;;;;;;;5025953;28;19956;-77
2023/04/11 15:36:48;;;;;;;;;;;;;;;;;;4999291;28;20342;-77
2023/04/11 15:39:14;;;;;;;;;;;;;;;;;;5003238;28;20456;-76
2023/04/11 15:41:40;;;;;;;;;;;;;;;;;;5024217;28;20720;-76
2023/04/11 15:44:06;;;;;;;;;;;;;;;;;;5002028;28;20373;-76
2023/04/11 15:46:32;;;;;;;;;;;;;;;;;;5019989;28;20263;-76
2023/04/11 15:48:58;;;;;;;;;;;;;;;;;;5005181;28;19982;-76
2023/04/11 15:51:26;;;;;;;;;;;;;;;;;;5019951;28;20526;-78
2023/04/11 15:53:52;;;;;;;;;;;;;;;;;;5021425;28;19948;-76
2023/04/11 15:56:18;;;;;;;;;;;;;;;;;;5016906;28;20425;-76
2023/04/11 15:58:44;;;;;;;;;;;;;;;;;;5008572;28;19919;-75
2023/04/11 16:01:11;;;;;;;;;;;;;;;;;;5005677;28;20035;-77
2023/04/11 16:03:38;;;;;;;;;;;;;;;;;;5028397;28;19912;-77
2023/04/11 16:06:04;;;;;;;;;;;;;;;;;;5011097;28;19940;-77
2023/04/11 16:08:30;;;;;;;;;;;;;;;;;;5025594;28;19917;-76
2023/04/11 16:10:56;;;;;;;;;;;;;;;;;;5020186;28;19924;-76
2023/04/11 16:13:22;;;;;;;;;;;;;;;;;;5022282;28;20023;-76